Terminal Aerodrome Forecast
Issued by NWS

Home | Current Version | Previous Version | Text Only | Print | Product List | Glossary On
Versions: 1 2 3 4 5 6 7 8 9 10 11 12 13 14 15 16 17 18 19 20 21 22 23 24 25 26 27 28 29 30 31 32 33 34
417
FTUS46 KOTX 131136
TAFMWH
TAF
KMWH 131136Z 1312/1412 16004KT 2SM BR VCSH SCT003 BKN070
     FM131500 24006KT 4SM BR BKN005
     FM132100 21008KT P6SM -RA BKN040 OVC080
     FM140500 18010KT P6SM BKN080 BKN200=

USA.gov is the U.S. government's official web portal to all federal, state and local government web resources and services.